createdAt,value
2022-09-04T00:05:02.290Z,18.98
2022-09-04T00:10:09.853Z,19.38
2022-09-04T00:15:19.509Z,19.52
2022-09-04T00:20:57.599Z,19.35
2022-09-04T00:26:06.611Z,19.15
2022-09-04T00:31:26.187Z,19.00
2022-09-04T00:36:29.744Z,19.57
2022-09-04T00:41:53.893Z,19.50
2022-09-04T00:47:39.130Z,19.90
2022-09-04T00:52:45.287Z,19.73
2022-09-04T00:57:59.689Z,19.56
2022-09-04T01:03:27.597Z,19.27
2022-09-04T01:08:35.184Z,19.43
2022-09-04T01:13:45.378Z,19.65
2022-09-04T01:18:51.229Z,19.74
2022-09-04T01:23:53.646Z,20.28
2022-09-04T01:29:29.255Z,20.87
2022-09-04T01:34:50.390Z,20.41
2022-09-04T01:40:19.123Z,20.71
2022-09-04T01:45:49.567Z,20.71
2022-09-04T01:50:58.270Z,20.37
2022-09-04T01:56:16.261Z,20.70
2022-09-04T02:01:38.608Z,20.50
2022-09-04T02:07:02.039Z,19.74
2022-09-04T02:12:16.487Z,19.69
2022-09-04T02:17:37.377Z,19.10
2022-09-04T02:22:44.725Z,19.44
2022-09-04T02:28:00.967Z,18.73
2022-09-04T02:33:19.860Z,18.10
2022-09-04T02:38:40.227Z,18.23
2022-09-04T02:43:56.343Z,17.96
2022-09-04T02:49:07.776Z,17.69
2022-09-04T02:54:24.972Z,17.54
2022-09-04T03:00:18.337Z,17.40
2022-09-04T03:05:30.160Z,17.32
2022-09-04T03:10:56.412Z,17.55
2022-09-04T03:16:43.620Z,18.79
2022-09-04T03:21:57.507Z,19.11
2022-09-04T03:27:07.185Z,19.42
2022-09-04T03:32:18.548Z,19.74
2022-09-04T03:37:49.715Z,19.04
2022-09-04T03:42:55.187Z,19.20
2022-09-04T03:48:25.458Z,18.51
2022-09-04T03:53:43.310Z,18.26
2022-09-04T03:59:08.755Z,18.07
2022-09-04T04:04:47.967Z,17.84
2022-09-04T04:10:10.101Z,17.70
2022-09-04T04:15:28.851Z,17.36
2022-09-04T04:21:13.058Z,17.88
2022-09-04T04:26:41.940Z,17.31
2022-09-04T04:32:14.794Z,17.52
2022-09-04T04:37:35.919Z,18.14
2022-09-04T04:42:50.346Z,17.68
2022-09-04T04:48:15.173Z,17.21
2022-09-04T04:53:36.134Z,17.96
2022-09-04T04:58:44.725Z,18.52
2022-09-04T05:03:53.979Z,18.36
2022-09-04T05:09:25.897Z,17.94
2022-09-04T05:15:00.313Z,18.58
2022-09-04T05:20:35.359Z,18.26
2022-09-04T05:25:48.326Z,18.77
2022-09-04T05:31:12.250Z,18.85
2022-09-04T05:36:40.575Z,19.38
2022-09-04T05:41:57.128Z,19.41
2022-09-04T05:47:05.885Z,19.13
2022-09-04T05:52:11.437Z,19.06
2022-09-04T05:57:41.550Z,19.50
2022-09-04T06:02:44.086Z,19.71
2022-09-04T06:08:01.015Z,20.20
2022-09-04T06:13:23.073Z,20.52
2022-09-04T06:18:28.615Z,20.72
2022-09-04T06:23:33.799Z,20.83
2022-09-04T06:28:42.592Z,21.19
2022-09-04T06:34:05.947Z,21.65
2022-09-04T06:39:35.157Z,21.75
2022-09-04T06:44:43.782Z,21.98
2022-09-04T06:50:11.684Z,22.19
2022-09-04T06:55:52.426Z,22.38
2022-09-04T07:01:11.766Z,22.92
2022-09-04T07:06:50.665Z,23.45
2022-09-04T07:12:02.258Z,23.84
2022-09-04T07:17:08.739Z,24.29
2022-09-04T07:22:40.516Z,24.62
2022-09-04T07:27:46.138Z,25.04
2022-09-04T07:33:08.463Z,25.39
2022-09-04T07:38:21.343Z,25.71
2022-09-04T07:43:32.626Z,26.03
2022-09-04T07:48:47.115Z,26.34
2022-09-04T07:54:02.104Z,27.07
2022-09-04T07:59:48.726Z,27.58
2022-09-04T08:05:18.723Z,27.86
2022-09-04T08:10:35.759Z,28.20
2022-09-04T08:15:50.829Z,28.33
2022-09-04T08:21:12.105Z,28.19
2022-09-04T08:26:21.709Z,27.52
2022-09-04T08:32:19.643Z,28.16
2022-09-04T08:37:42.900Z,27.57
2022-09-04T08:42:57.856Z,26.98
2022-09-04T08:48:12.147Z,26.80
2022-09-04T08:53:29.558Z,28.06
2022-09-04T08:58:48.188Z,26.59
2022-09-04T09:04:12.121Z,26.68
2022-09-04T09:09:36.154Z,25.54
2022-09-04T09:15:00.144Z,25.50
2022-09-04T09:20:29.807Z,25.33
2022-09-04T09:25:48.051Z,25.44
2022-09-04T09:31:27.990Z,25.68
2022-09-04T09:37:07.453Z,30.43
2022-09-04T09:42:40.791Z,32.57
2022-09-04T09:48:13.079Z,33.81
2022-09-04T09:53:53.852Z,34.50
2022-09-04T09:59:31.212Z,35.04
2022-09-04T10:04:40.152Z,34.87
2022-09-04T10:10:24.873Z,33.56
2022-09-04T10:15:59.499Z,29.11
2022-09-04T10:21:20.899Z,28.09
2022-09-04T10:27:04.796Z,31.39
2022-09-04T10:32:31.884Z,32.88
2022-09-04T10:38:05.332Z,32.56
2022-09-04T10:43:45.405Z,32.16
2022-09-04T10:48:58.964Z,30.42
2022-09-04T10:54:40.677Z,28.64
2022-09-04T11:00:06.670Z,32.76
2022-09-04T11:05:36.535Z,35.66
2022-09-04T11:11:08.217Z,36.84
2022-09-04T11:16:16.640Z,38.86
2022-09-04T11:21:25.335Z,36.49
2022-09-04T11:26:47.767Z,37.59
2022-09-04T11:32:12.823Z,35.31
2022-09-04T11:37:36.240Z,32.61
2022-09-04T11:43:08.470Z,29.79
2022-09-04T11:48:32.206Z,28.77
2022-09-04T11:53:37.652Z,28.18
2022-09-04T11:59:17.760Z,27.82
2022-09-04T12:04:50.138Z,27.57
2022-09-04T12:09:58.628Z,27.50
2022-09-04T12:15:22.328Z,27.57
2022-09-04T12:20:37.392Z,27.29
2022-09-04T12:26:18.103Z,27.94
2022-09-04T12:31:51.236Z,28.22
2022-09-04T12:37:33.389Z,27.74
2022-09-04T12:43:02.800Z,27.27
2022-09-04T12:48:17.908Z,27.32
2022-09-04T12:53:52.929Z,27.75
2022-09-04T12:58:55.651Z,27.12
2022-09-04T13:04:16.475Z,28.66
2022-09-04T13:09:25.347Z,29.11
2022-09-04T13:14:51.386Z,28.04
2022-09-04T13:20:10.647Z,31.74
2022-09-04T13:25:27.353Z,34.57
2022-09-04T13:30:32.134Z,35.84
2022-09-04T13:35:48.026Z,36.39
2022-09-04T13:41:16.496Z,32.08
2022-09-04T13:46:30.206Z,29.84
2022-09-04T13:51:59.519Z,29.07
2022-09-04T13:57:21.254Z,28.74
2022-09-04T14:02:27.332Z,29.29
2022-09-04T14:07:36.602Z,31.12
2022-09-04T14:13:11.030Z,29.37
2022-09-04T14:18:37.070Z,28.79
2022-09-04T14:23:53.175Z,28.08
2022-09-04T14:29:15.834Z,28.01
2022-09-04T14:35:03.527Z,29.74
2022-09-04T14:40:16.009Z,28.48
2022-09-04T14:45:48.540Z,28.90
2022-09-04T14:51:11.417Z,32.12
2022-09-04T14:56:13.920Z,29.38
2022-09-04T15:01:25.218Z,32.90
2022-09-04T15:07:07.830Z,33.38
2022-09-04T15:12:32.570Z,33.32
2022-09-04T15:17:40.121Z,33.50
2022-09-04T15:22:56.077Z,32.14
2022-09-04T15:28:01.370Z,32.45
2022-09-04T15:33:19.267Z,33.14
2022-09-04T15:38:26.003Z,32.79
2022-09-04T15:43:42.324Z,31.91
2022-09-04T15:48:45.178Z,31.33
2022-09-04T15:54:10.540Z,30.50
2022-09-04T15:59:18.253Z,30.01
2022-09-04T16:04:32.863Z,29.49
2022-09-04T16:09:48.840Z,29.33
2022-09-04T16:15:05.601Z,29.00
2022-09-04T16:20:22.949Z,28.39
2022-09-04T16:25:31.607Z,28.20
2022-09-04T16:31:00.178Z,27.58
2022-09-04T16:36:24.137Z,27.44
2022-09-04T16:41:50.840Z,27.15
2022-09-04T16:47:04.702Z,26.88
2022-09-04T16:52:20.045Z,26.76
2022-09-04T16:57:55.440Z,26.63
2022-09-04T17:03:21.477Z,26.36
2022-09-04T17:08:38.453Z,26.24
2022-09-04T17:13:59.543Z,25.86
2022-09-04T17:19:15.368Z,25.56
2022-09-04T17:29:12.099Z,25.56
2022-09-04T17:30:15.058Z,25.31
2022-09-04T17:40:35.191Z,25.25
2022-09-04T17:41:34.427Z,24.88
2022-09-04T17:46:58.763Z,24.61
2022-09-04T17:52:06.363Z,24.20
2022-09-04T17:57:32.377Z,23.96
2022-09-04T18:03:02.755Z,24.00
2022-09-04T18:08:13.454Z,24.80
2022-09-04T18:13:43.766Z,25.01
2022-09-04T18:18:55.564Z,24.89
2022-09-04T18:23:58.052Z,23.99
2022-09-04T18:30:33.974Z,24.71
2022-09-04T18:37:16.158Z,24.91
2022-09-04T18:41:26.648Z,24.15
2022-09-04T18:50:43.763Z,24.19
2022-09-04T18:51:52.113Z,24.21
2022-09-04T18:57:06.416Z,24.33
2022-09-04T19:02:31.864Z,24.48
2022-09-04T19:07:42.928Z,24.34
2022-09-04T19:12:58.662Z,23.95
2022-09-04T19:18:21.955Z,24.38
2022-09-04T19:23:37.964Z,24.52
2022-09-04T19:28:52.957Z,24.04
2022-09-04T19:34:18.032Z,23.87
2022-09-04T19:45:56.754Z,23.57
2022-09-04T19:46:13.887Z,23.50
2022-09-04T19:53:31.034Z,23.41
2022-09-04T19:56:19.149Z,23.31
2022-09-04T20:01:29.371Z,23.83
2022-09-04T20:06:46.855Z,23.63
2022-09-04T20:12:03.081Z,23.33
2022-09-04T20:17:24.387Z,22.84
2022-09-04T20:22:35.500Z,22.63
2022-09-04T20:27:46.829Z,22.58
2022-09-04T20:33:17.691Z,23.26
2022-09-04T20:38:32.906Z,23.68
2022-09-04T20:43:56.780Z,23.90
2022-09-04T20:52:42.681Z,23.10
2022-09-04T20:54:54.591Z,22.03
2022-09-04T21:03:11.239Z,21.45
2022-09-04T21:06:01.303Z,22.60
2022-09-04T21:11:14.712Z,22.92
2022-09-04T21:17:16.960Z,23.40
2022-09-04T21:22:33.696Z,22.17
2022-09-04T21:27:58.519Z,21.55
2022-09-04T21:33:26.843Z,22.21
2022-09-04T21:39:02.765Z,22.63
2022-09-04T21:44:26.174Z,22.35
2022-09-04T21:49:31.579Z,22.56
2022-09-04T21:59:36.719Z,22.36
2022-09-04T22:02:36.345Z,21.91
2022-09-04T22:05:49.101Z,22.09
2022-09-04T22:13:39.417Z,22.40
2022-09-04T22:17:33.154Z,22.71
2022-09-04T22:22:53.822Z,22.45
2022-09-04T22:28:09.695Z,21.34
2022-09-04T22:33:25.285Z,21.14
2022-09-04T22:38:40.628Z,22.03
2022-09-04T22:44:07.831Z,21.63
2022-09-04T22:49:57.109Z,21.02
2022-09-04T22:55:39.488Z,20.24
2022-09-04T23:01:09.845Z,20.38
2022-09-04T23:11:18.553Z,21.68
2022-09-04T23:13:58.274Z,22.08
2022-09-04T23:20:41.145Z,20.88
2022-09-04T23:26:37.523Z,20.43
2022-09-04T23:28:52.445Z,20.74
2022-09-04T23:34:08.874Z,21.53
2022-09-04T23:39:53.196Z,22.00
2022-09-04T23:45:28.100Z,20.96
2022-09-04T23:50:37.274Z,21.79
2022-09-04T23:56:04.498Z,22.28
